createdAt,value
2017-06-17T00:00:40.075Z,16.70
2017-06-17T00:03:07.701Z,16.70
2017-06-17T00:05:35.265Z,16.60
2017-06-17T00:08:02.828Z,16.60
2017-06-17T00:10:30.469Z,16.60
2017-06-17T00:12:58.051Z,16.50
2017-06-17T00:15:25.591Z,16.50
2017-06-17T00:17:53.145Z,16.50
2017-06-17T00:20:20.827Z,16.40
2017-06-17T00:22:48.469Z,16.40
2017-06-17T00:25:16.017Z,16.30
2017-06-17T00:27:43.571Z,16.30
2017-06-17T00:30:11.111Z,16.20
2017-06-17T00:32:39.522Z,16.10
2017-06-17T00:35:07.100Z,16.00
2017-06-17T00:37:34.663Z,15.90
2017-06-17T00:40:02.225Z,15.90
2017-06-17T00:42:29.840Z,15.80
2017-06-17T00:44:57.380Z,15.70
2017-06-17T00:47:25.682Z,15.50
2017-06-17T00:49:53.303Z,15.50
2017-06-17T00:52:20.856Z,15.40
2017-06-17T00:54:48.390Z,15.30
2017-06-17T00:57:15.957Z,15.30
2017-06-17T00:59:43.495Z,15.20
2017-06-17T01:02:11.033Z,15.10
2017-06-17T01:04:38.598Z,15.20
2017-06-17T01:07:06.186Z,15.30
2017-06-17T01:09:33.725Z,15.30
2017-06-17T01:12:01.283Z,15.30
2017-06-17T01:14:28.847Z,15.30
2017-06-17T01:16:56.507Z,15.40
2017-06-17T01:19:24.051Z,15.40
2017-06-17T01:21:51.597Z,15.40
2017-06-17T01:24:19.199Z,15.50
2017-06-17T01:26:46.774Z,15.60
2017-06-17T01:29:14.310Z,15.60
2017-06-17T01:31:41.900Z,15.60
2017-06-17T01:34:09.440Z,15.70
2017-06-17T01:36:36.980Z,15.70
2017-06-17T01:39:04.541Z,15.70
2017-06-17T01:41:32.106Z,15.70
2017-06-17T01:43:59.641Z,15.70
2017-06-17T01:46:27.188Z,15.70
2017-06-17T01:48:54.758Z,15.70
2017-06-17T01:51:22.310Z,15.70
2017-06-17T01:53:49.860Z,15.70
2017-06-17T01:56:17.451Z,15.70
2017-06-17T01:58:44.977Z,15.70
2017-06-17T02:01:13.303Z,15.70
2017-06-17T02:03:40.837Z,15.70
2017-06-17T02:06:08.384Z,15.70
2017-06-17T02:08:35.963Z,15.70
2017-06-17T02:11:03.541Z,15.70
2017-06-17T02:13:31.081Z,15.60
2017-06-17T02:15:58.663Z,15.60
2017-06-17T02:18:26.199Z,15.50
2017-06-17T02:20:53.737Z,15.50
2017-06-17T02:23:21.309Z,15.50
2017-06-17T02:25:48.841Z,15.40
2017-06-17T02:28:17.185Z,15.40
2017-06-17T02:30:44.749Z,15.30
2017-06-17T02:33:12.307Z,15.30
2017-06-17T02:35:39.851Z,15.40
2017-06-17T02:38:07.607Z,15.40
2017-06-17T02:40:35.180Z,15.40
2017-06-17T02:43:02.738Z,15.40
2017-06-17T02:45:30.313Z,15.40
2017-06-17T02:47:57.874Z,15.40
2017-06-17T02:50:25.410Z,15.40
2017-06-17T02:52:52.980Z,15.30
2017-06-17T02:55:20.558Z,15.30
2017-06-17T02:57:48.124Z,15.30
2017-06-17T03:00:16.440Z,15.40
2017-06-17T03:02:43.997Z,15.30
2017-06-17T03:05:11.589Z,15.30
2017-06-17T03:07:39.126Z,15.30
2017-06-17T03:10:06.687Z,15.20
2017-06-17T03:12:34.255Z,15.10
2017-06-17T03:15:01.786Z,15.00
2017-06-17T03:17:29.319Z,15.00
2017-06-17T03:19:57.649Z,15.00
2017-06-17T03:22:25.295Z,15.00
2017-06-17T03:24:52.833Z,15.00
2017-06-17T03:27:20.399Z,15.10
2017-06-17T03:29:47.937Z,15.10
2017-06-17T03:32:15.483Z,15.20
2017-06-17T03:34:43.822Z,15.20
2017-06-17T03:37:11.363Z,15.20
2017-06-17T03:39:38.899Z,15.30
2017-06-17T03:42:06.473Z,15.20
2017-06-17T03:44:34.008Z,15.30
2017-06-17T03:47:02.306Z,15.30
2017-06-17T03:49:29.862Z,15.30
2017-06-17T03:51:57.400Z,15.40
2017-06-17T03:54:25.721Z,15.30
2017-06-17T03:56:53.322Z,15.30
2017-06-17T03:59:21.650Z,15.30
2017-06-17T04:01:49.204Z,15.30
2017-06-17T04:04:16.782Z,15.30
2017-06-17T04:06:44.338Z,15.40
2017-06-17T04:09:11.878Z,15.40
2017-06-17T04:11:39.459Z,15.40
2017-06-17T04:14:06.993Z,15.40
2017-06-17T04:16:34.577Z,15.40
2017-06-17T04:19:02.143Z,15.30
2017-06-17T04:21:29.706Z,15.40
2017-06-17T04:23:57.248Z,15.40
2017-06-17T04:26:24.801Z,15.50
2017-06-17T04:28:52.371Z,15.50
2017-06-17T04:31:19.952Z,15.60
2017-06-17T04:33:47.525Z,15.60
2017-06-17T04:36:15.851Z,15.50
2017-06-17T04:38:43.439Z,15.50
2017-06-17T04:41:10.999Z,15.40
2017-06-17T04:43:38.545Z,15.30
2017-06-17T04:46:06.102Z,15.20
2017-06-17T04:48:33.638Z,15.20
2017-06-17T04:51:01.204Z,15.10
2017-06-17T04:53:28.739Z,15.10
2017-06-17T04:55:56.282Z,15.20
2017-06-17T04:58:24.634Z,15.30
2017-06-17T05:00:52.803Z,15.30
2017-06-17T05:03:20.334Z,15.40
2017-06-17T05:05:47.938Z,15.40
2017-06-17T05:08:15.478Z,15.40
2017-06-17T05:10:43.030Z,15.40
2017-06-17T05:13:10.605Z,15.40
2017-06-17T05:15:38.137Z,15.60
2017-06-17T05:18:05.681Z,15.60
2017-06-17T05:20:33.251Z,15.70
2017-06-17T05:23:00.785Z,15.70
2017-06-17T05:25:28.330Z,15.70
2017-06-17T05:27:56.847Z,15.80
2017-06-17T05:30:24.393Z,15.80
2017-06-17T05:32:51.935Z,15.90
2017-06-17T05:35:19.541Z,15.90
2017-06-17T05:37:47.087Z,15.90
2017-06-17T05:40:14.623Z,16.00
2017-06-17T05:42:42.246Z,16.00
2017-06-17T05:45:10.558Z,16.10
2017-06-17T05:47:38.127Z,16.00
2017-06-17T05:50:05.719Z,16.10
2017-06-17T05:52:33.291Z,16.10
2017-06-17T05:55:00.844Z,16.20
2017-06-17T05:57:28.499Z,16.20
2017-06-17T05:59:56.022Z,16.30
2017-06-17T06:02:23.602Z,16.30
2017-06-17T06:04:51.148Z,16.30
2017-06-17T06:07:19.710Z,16.30
2017-06-17T06:09:47.358Z,16.20
2017-06-17T06:12:15.662Z,16.30
2017-06-17T06:14:43.242Z,16.20
2017-06-17T06:17:10.821Z,16.20
2017-06-17T06:19:38.358Z,16.10
2017-06-17T06:22:05.892Z,16.10
2017-06-17T06:24:33.566Z,16.00
2017-06-17T06:27:01.121Z,16.00
2017-06-17T06:29:28.843Z,15.90
2017-06-17T06:31:57.239Z,16.00
2017-06-17T06:34:24.789Z,16.00
2017-06-17T06:36:52.398Z,16.00
2017-06-17T06:39:20.060Z,16.10
2017-06-17T06:41:48.354Z,16.20
2017-06-17T06:44:15.895Z,16.20
2017-06-17T06:46:43.523Z,16.30
2017-06-17T06:49:11.113Z,16.60
2017-06-17T06:51:38.647Z,16.90
2017-06-17T06:54:06.211Z,17.20
2017-06-17T06:56:33.759Z,17.50
2017-06-17T06:59:01.291Z,17.70
2017-06-17T07:01:29.730Z,18.10
2017-06-17T07:03:57.266Z,18.10
2017-06-17T07:06:24.842Z,18.20
2017-06-17T07:08:52.519Z,18.10
2017-06-17T07:11:20.074Z,18.10
2017-06-17T07:13:47.602Z,18.10
2017-06-17T07:16:15.177Z,17.90
2017-06-17T07:18:42.720Z,17.80
2017-06-17T07:21:10.263Z,17.80
2017-06-17T07:23:37.875Z,17.80
2017-06-17T07:26:05.418Z,17.80
2017-06-17T07:28:32.993Z,18.00
2017-06-17T07:31:00.565Z,18.10
2017-06-17T07:33:28.905Z,18.20
2017-06-17T07:35:56.449Z,18.20
2017-06-17T07:38:24.023Z,18.30
2017-06-17T07:40:51.573Z,18.50
2017-06-17T07:43:19.143Z,18.60
2017-06-17T07:45:46.817Z,18.40
2017-06-17T07:48:14.449Z,18.30
2017-06-17T07:50:42.019Z,18.40
2017-06-17T07:53:09.680Z,18.50
2017-06-17T07:55:37.334Z,18.60
2017-06-17T07:58:05.789Z,18.60
2017-06-17T08:00:33.323Z,18.50
2017-06-17T08:03:01.640Z,18.20
2017-06-17T08:05:29.206Z,18.20
2017-06-17T08:07:56.735Z,18.20
2017-06-17T08:10:24.274Z,17.90
2017-06-17T08:12:52.648Z,17.80
2017-06-17T08:15:20.972Z,17.80
2017-06-17T08:17:48.537Z,17.70
2017-06-17T08:20:16.296Z,17.90
2017-06-17T08:22:43.830Z,17.90
2017-06-17T08:25:11.630Z,18.00
2017-06-17T08:27:39.185Z,18.20
2017-06-17T08:30:06.715Z,18.60
2017-06-17T08:32:34.257Z,19.10
2017-06-17T08:35:02.558Z,19.80
2017-06-17T08:37:30.153Z,19.80
2017-06-17T08:39:57.686Z,19.90
2017-06-17T08:42:25.213Z,20.00
2017-06-17T08:44:52.818Z,20.10
2017-06-17T08:47:21.591Z,20.00
2017-06-17T08:49:49.150Z,19.90
2017-06-17T08:52:16.687Z,19.70
2017-06-17T08:54:44.237Z,19.80
2017-06-17T08:57:12.568Z,19.60
2017-06-17T08:59:40.207Z,19.50
2017-06-17T09:02:07.732Z,19.70
2017-06-17T09:04:36.054Z,20.30
2017-06-17T09:07:03.643Z,20.20
2017-06-17T09:09:31.174Z,20.50
2017-06-17T09:11:58.710Z,20.40
2017-06-17T09:14:26.280Z,20.10
2017-06-17T09:16:53.811Z,20.20
2017-06-17T09:19:21.350Z,20.30
2017-06-17T09:21:49.682Z,20.30
2017-06-17T09:24:17.220Z,20.30
2017-06-17T09:26:44.774Z,20.40
2017-06-17T09:29:12.314Z,20.60
2017-06-17T09:31:40.729Z,21.20
2017-06-17T09:34:08.288Z,21.20
2017-06-17T09:36:35.829Z,21.40
2017-06-17T09:39:03.398Z,21.10
2017-06-17T09:41:30.938Z,20.80
2017-06-17T09:43:58.541Z,21.00
2017-06-17T09:46:26.107Z,20.90
2017-06-17T09:48:53.661Z,20.60
2017-06-17T09:51:21.523Z,20.30
2017-06-17T09:53:49.051Z,20.30
2017-06-17T09:56:16.593Z,20.50
2017-06-17T09:58:44.173Z,20.60
2017-06-17T10:01:11.703Z,20.70
2017-06-17T10:03:40.044Z,20.90
2017-06-17T10:06:07.602Z,20.90
2017-06-17T10:08:35.138Z,21.40
2017-06-17T10:11:02.674Z,21.80
2017-06-17T10:13:30.242Z,22.00
2017-06-17T10:15:57.783Z,21.50
2017-06-17T10:18:26.112Z,21.30
2017-06-17T10:20:59.250Z,21.30
2017-06-17T10:23:27.558Z,21.80
2017-06-17T10:25:55.120Z,21.80
2017-06-17T10:28:22.646Z,21.90
2017-06-17T10:30:51.060Z,22.10
2017-06-17T10:33:18.622Z,22.00
2017-06-17T10:35:46.281Z,22.10
2017-06-17T10:38:14.054Z,21.80
2017-06-17T10:40:41.592Z,21.70
2017-06-17T10:43:09.121Z,21.70
2017-06-17T10:45:37.467Z,22.40
2017-06-17T10:48:04.997Z,22.40
2017-06-17T10:50:32.531Z,22.30
2017-06-17T10:53:00.081Z,22.00
2017-06-17T10:55:28.383Z,22.40
2017-06-17T10:57:55.952Z,22.40
2017-06-17T11:00:23.495Z,22.50
2017-06-17T11:02:51.035Z,22.60
2017-06-17T11:05:19.367Z,23.40
2017-06-17T11:07:46.925Z,23.30
2017-06-17T11:10:14.475Z,24.00
2017-06-17T11:12:42.046Z,23.70
2017-06-17T11:15:09.574Z,23.00
2017-06-17T11:17:37.154Z,23.30
2017-06-17T11:20:04.716Z,23.10
2017-06-17T11:22:32.260Z,23.50
2017-06-17T11:24:59.838Z,24.30
2017-06-17T11:27:27.391Z,24.90
2017-06-17T11:29:54.926Z,25.20
2017-06-17T11:32:22.492Z,24.50
2017-06-17T11:34:50.090Z,23.90
2017-06-17T11:37:17.623Z,23.20
2017-06-17T11:39:45.163Z,22.90
2017-06-17T11:42:12.836Z,23.80
2017-06-17T11:44:40.429Z,26.20
2017-06-17T11:47:07.976Z,28.10
2017-06-17T11:49:35.540Z,30.20
2017-06-17T11:52:03.071Z,30.60
2017-06-17T11:54:36.406Z,29.40
2017-06-17T11:57:03.947Z,27.90
2017-06-17T11:59:31.499Z,26.40
2017-06-17T12:01:59.070Z,27.80
2017-06-17T12:04:26.593Z,29.60
2017-06-17T12:06:54.122Z,30.70
2017-06-17T12:09:22.485Z,33.30
2017-06-17T12:11:50.817Z,32.40
2017-06-17T12:14:18.376Z,32.30
2017-06-17T12:16:45.931Z,30.70
2017-06-17T12:19:13.492Z,29.00
2017-06-17T12:21:41.756Z,29.10
2017-06-17T12:24:09.306Z,29.60
2017-06-17T12:26:36.914Z,31.20
2017-06-17T12:29:04.458Z,30.40
2017-06-17T12:31:31.990Z,30.90
2017-06-17T12:33:59.554Z,32.10
2017-06-17T12:36:27.107Z,32.70
2017-06-17T12:38:54.654Z,33.30
2017-06-17T12:41:22.228Z,33.60
2017-06-17T12:43:49.823Z,33.20
2017-06-17T12:46:17.365Z,34.50
2017-06-17T12:48:44.933Z,34.50
2017-06-17T12:51:12.576Z,34.80
2017-06-17T12:53:40.115Z,32.40
2017-06-17T12:56:07.698Z,30.80
2017-06-17T12:58:35.247Z,32.30
2017-06-17T13:01:02.791Z,33.30
2017-06-17T13:03:30.369Z,33.90
2017-06-17T13:05:57.911Z,31.90
2017-06-17T13:08:25.461Z,30.00
2017-06-17T13:10:53.015Z,30.40
2017-06-17T13:13:20.589Z,32.10
2017-06-17T13:15:48.141Z,32.20
2017-06-17T13:18:15.671Z,32.10
2017-06-17T13:20:43.250Z,33.10
2017-06-17T13:23:10.793Z,33.40
2017-06-17T13:25:39.094Z,33.90
2017-06-17T13:28:06.662Z,33.90
2017-06-17T13:30:34.198Z,34.30
2017-06-17T13:33:02.610Z,34.90
2017-06-17T13:35:30.172Z,34.80
2017-06-17T13:37:57.712Z,32.90
2017-06-17T13:40:25.260Z,33.40
2017-06-17T13:42:52.825Z,34.40
2017-06-17T13:45:20.373Z,35.70
2017-06-17T13:47:48.722Z,36.50
2017-06-17T13:50:16.287Z,36.50
2017-06-17T13:52:43.815Z,37.20
2017-06-17T13:55:11.356Z,38.40
2017-06-17T13:57:39.021Z,38.60
2017-06-17T14:00:06.587Z,38.10
2017-06-17T14:02:34.145Z,37.50
2017-06-17T14:05:01.685Z,36.60
2017-06-17T14:07:29.271Z,37.10
2017-06-17T14:09:56.799Z,36.70
2017-06-17T14:12:24.585Z,34.50
2017-06-17T14:14:52.155Z,31.70
2017-06-17T14:17:19.699Z,31.30
2017-06-17T14:19:47.226Z,30.60
2017-06-17T14:22:26.058Z,30.20
2017-06-17T14:24:53.592Z,31.70
2017-06-17T14:27:21.898Z,33.30
2017-06-17T14:29:49.454Z,33.20
2017-06-17T14:32:17.006Z,31.00
2017-06-17T14:34:44.558Z,29.40
2017-06-17T14:37:12.864Z,31.00
2017-06-17T14:39:40.428Z,30.90
2017-06-17T14:42:07.992Z,30.70
2017-06-17T14:44:35.549Z,31.30
2017-06-17T14:47:03.119Z,32.90
2017-06-17T14:49:30.672Z,32.90
2017-06-17T14:51:58.213Z,31.40
2017-06-17T14:54:25.783Z,30.90
2017-06-17T14:56:53.334Z,29.70
2017-06-17T14:59:20.901Z,28.80
2017-06-17T15:01:48.481Z,29.90
2017-06-17T15:04:16.135Z,31.30
2017-06-17T15:06:43.687Z,30.00
2017-06-17T15:09:11.247Z,28.30
2017-06-17T15:11:38.791Z,27.90
2017-06-17T15:14:06.325Z,28.00
2017-06-17T15:16:33.874Z,28.10
2017-06-17T15:19:01.431Z,28.80
2017-06-17T15:21:29.751Z,28.90
2017-06-17T15:23:57.319Z,28.80
2017-06-17T15:26:24.890Z,30.60
2017-06-17T15:28:52.418Z,31.20
2017-06-17T15:31:20.302Z,32.80
2017-06-17T15:33:47.846Z,33.40
2017-06-17T15:36:15.430Z,33.70
2017-06-17T15:38:42.996Z,34.10
2017-06-17T15:41:10.525Z,33.10
2017-06-17T15:43:38.058Z,31.70
2017-06-17T15:46:05.640Z,31.80
2017-06-17T15:48:33.177Z,32.10
2017-06-17T15:51:00.758Z,31.30
2017-06-17T15:53:28.324Z,30.10
2017-06-17T15:55:55.865Z,28.80
2017-06-17T15:58:23.415Z,28.90
2017-06-17T16:00:51.197Z,29.20
2017-06-17T16:03:18.729Z,30.30
2017-06-17T16:05:46.379Z,30.80
2017-06-17T16:08:14.001Z,30.50
2017-06-17T16:10:41.543Z,30.10
2017-06-17T16:13:09.140Z,29.90
2017-06-17T16:15:36.726Z,30.30
2017-06-17T16:18:04.262Z,31.10
2017-06-17T16:20:32.603Z,31.20
2017-06-17T16:23:00.170Z,31.20
2017-06-17T16:25:27.735Z,29.50
2017-06-17T16:27:55.311Z,28.50
2017-06-17T16:30:23.643Z,27.80
2017-06-17T16:32:51.178Z,27.80
2017-06-17T16:35:18.770Z,27.20
2017-06-17T16:37:46.302Z,26.80
2017-06-17T16:40:13.864Z,26.20
2017-06-17T16:42:41.446Z,25.70
2017-06-17T16:45:09.094Z,25.20
2017-06-17T16:47:36.670Z,25.00
2017-06-17T16:50:04.242Z,24.80
2017-06-17T16:52:31.773Z,24.30
2017-06-17T16:54:59.305Z,23.60
2017-06-17T16:57:26.891Z,23.20
2017-06-17T16:59:54.434Z,23.20
2017-06-17T17:02:21.977Z,23.30
2017-06-17T17:04:49.555Z,23.60
2017-06-17T17:07:17.105Z,23.50
2017-06-17T17:09:44.663Z,23.10
2017-06-17T17:12:12.231Z,23.00
2017-06-17T17:14:39.765Z,23.00
2017-06-17T17:17:07.315Z,22.70
2017-06-17T17:19:35.644Z,22.70
2017-06-17T17:22:03.200Z,22.70
2017-06-17T17:24:30.739Z,22.50
2017-06-17T17:26:58.323Z,22.30
2017-06-17T17:29:25.859Z,22.30
2017-06-17T17:31:53.391Z,22.20
2017-06-17T17:34:21.722Z,21.80
2017-06-17T17:36:49.266Z,21.80
2017-06-17T17:39:16.790Z,21.80
2017-06-17T17:41:44.344Z,21.80
2017-06-17T17:44:11.885Z,21.80
2017-06-17T17:46:40.202Z,21.40
2017-06-17T17:49:07.733Z,21.40
2017-06-17T17:51:36.050Z,21.30
2017-06-17T17:54:03.622Z,21.30
2017-06-17T17:56:31.168Z,21.50
2017-06-17T17:58:58.723Z,21.70
2017-06-17T18:01:26.310Z,21.70
2017-06-17T18:03:53.872Z,21.60
2017-06-17T18:06:21.413Z,21.60
2017-06-17T18:08:48.983Z,21.40
2017-06-17T18:11:16.579Z,21.20
2017-06-17T18:13:44.897Z,20.60
2017-06-17T18:16:12.557Z,20.60
2017-06-17T18:18:40.123Z,20.40
2017-06-17T18:21:07.773Z,20.30
2017-06-17T18:23:35.313Z,20.10
2017-06-17T18:26:02.890Z,20.00
2017-06-17T18:28:30.441Z,19.90
2017-06-17T18:30:57.981Z,19.70
2017-06-17T18:33:25.570Z,19.70
2017-06-17T18:35:53.129Z,19.50
2017-06-17T18:38:20.673Z,19.40
2017-06-17T18:40:48.235Z,19.20
2017-06-17T18:43:15.816Z,19.00
2017-06-17T18:45:43.402Z,18.90
2017-06-17T18:48:11.023Z,18.80
2017-06-17T18:50:38.562Z,18.70
2017-06-17T18:53:06.158Z,18.60
2017-06-17T18:55:33.822Z,18.40
2017-06-17T18:58:01.358Z,18.20
2017-06-17T19:00:28.924Z,18.10
2017-06-17T19:02:56.549Z,18.00
2017-06-17T19:05:24.096Z,18.00
2017-06-17T19:07:52.415Z,17.70
2017-06-17T19:10:19.988Z,17.70
2017-06-17T19:12:47.634Z,17.70
2017-06-17T19:15:15.191Z,17.50
2017-06-17T19:17:42.767Z,17.50
2017-06-17T19:20:10.345Z,17.40
2017-06-17T19:22:37.916Z,17.30
2017-06-17T19:25:06.343Z,17.20
2017-06-17T19:27:34.007Z,17.20
2017-06-17T19:30:01.543Z,17.10
2017-06-17T19:32:29.095Z,17.10
2017-06-17T19:34:56.650Z,17.00
2017-06-17T19:37:24.965Z,16.80
2017-06-17T19:39:52.547Z,16.80
2017-06-17T19:42:20.088Z,16.70
2017-06-17T19:44:47.634Z,16.60
2017-06-17T19:47:15.186Z,16.50
2017-06-17T19:49:42.772Z,16.40
2017-06-17T19:52:10.330Z,16.30
2017-06-17T19:54:37.870Z,16.20
2017-06-17T19:57:05.438Z,16.10
2017-06-17T19:59:32.990Z,16.00
2017-06-17T20:02:00.510Z,15.90
2017-06-17T20:04:28.856Z,15.80
2017-06-17T20:06:56.411Z,15.70
2017-06-17T20:09:23.945Z,15.60
2017-06-17T20:11:51.505Z,15.60
2017-06-17T20:14:19.055Z,15.50
2017-06-17T20:16:46.661Z,15.50
2017-06-17T20:19:14.217Z,15.40
2017-06-17T20:21:47.509Z,15.40
2017-06-17T20:24:31.909Z,15.30
2017-06-17T20:26:59.483Z,15.20
2017-06-17T20:29:27.033Z,15.10
2017-06-17T20:31:54.595Z,15.00
2017-06-17T20:34:22.275Z,14.90
2017-06-17T20:36:49.809Z,14.80
2017-06-17T20:39:17.334Z,14.80
2017-06-17T20:41:44.905Z,14.70
2017-06-17T20:44:13.326Z,14.60
2017-06-17T20:46:40.896Z,14.60
2017-06-17T20:49:08.434Z,14.60
2017-06-17T20:51:35.970Z,14.60
2017-06-17T20:54:04.395Z,14.60
2017-06-17T20:56:31.930Z,14.60
2017-06-17T20:58:59.466Z,14.60
2017-06-17T21:01:27.906Z,14.70
2017-06-17T21:03:55.452Z,14.70
2017-06-17T21:06:22.997Z,14.70
2017-06-17T21:08:50.597Z,14.70
2017-06-17T21:11:18.849Z,14.70
2017-06-17T21:13:46.393Z,14.70
2017-06-17T21:16:13.964Z,14.70
2017-06-17T21:18:41.501Z,14.60
2017-06-17T21:21:09.089Z,14.60
2017-06-17T21:23:36.648Z,14.60
2017-06-17T21:26:04.297Z,14.60
2017-06-17T21:28:31.871Z,14.60
2017-06-17T21:30:59.417Z,14.60
2017-06-17T21:33:26.949Z,14.70
2017-06-17T21:35:54.507Z,14.90
2017-06-17T21:38:22.049Z,15.00
2017-06-17T21:40:50.349Z,15.20
2017-06-17T21:43:17.907Z,15.20
2017-06-17T21:45:45.622Z,15.30
2017-06-17T21:48:13.157Z,15.40
2017-06-17T21:50:40.934Z,15.40
2017-06-17T21:53:08.528Z,15.40
2017-06-17T21:55:36.834Z,15.50
2017-06-17T21:58:04.512Z,15.50
2017-06-17T22:00:32.086Z,15.60
2017-06-17T22:02:59.626Z,15.60
2017-06-17T22:05:27.179Z,15.60
2017-06-17T22:07:54.782Z,15.50
2017-06-17T22:10:22.313Z,15.50
2017-06-17T22:12:49.873Z,15.50
2017-06-17T22:15:17.435Z,15.50
2017-06-17T22:17:45.001Z,15.50
2017-06-17T22:20:12.545Z,15.40
2017-06-17T22:22:40.227Z,15.40
2017-06-17T22:25:07.781Z,15.20
2017-06-17T22:27:35.359Z,15.10
2017-06-17T22:30:02.989Z,15.00
2017-06-17T22:32:57.993Z,14.90
2017-06-17T22:35:25.545Z,14.80
2017-06-17T22:37:53.089Z,14.80
2017-06-17T22:40:20.683Z,14.70
2017-06-17T22:42:48.238Z,14.60
2017-06-17T22:45:15.805Z,14.50
2017-06-17T22:47:43.480Z,14.50
2017-06-17T22:50:11.014Z,14.50
2017-06-17T22:52:38.542Z,14.40
2017-06-17T22:55:06.121Z,14.40
2017-06-17T22:57:33.658Z,14.30
2017-06-17T23:00:01.236Z,14.30
2017-06-17T23:02:28.776Z,14.10
2017-06-17T23:04:56.306Z,13.90
2017-06-17T23:07:23.883Z,13.80
2017-06-17T23:09:52.196Z,13.50
2017-06-17T23:12:19.744Z,13.50
2017-06-17T23:14:47.307Z,13.40
2017-06-17T23:17:14.837Z,13.30
2017-06-17T23:19:42.370Z,13.20
2017-06-17T23:22:09.938Z,13.20
2017-06-17T23:24:37.490Z,13.10
2017-06-17T23:27:05.119Z,13.00
2017-06-17T23:29:32.695Z,12.90
2017-06-17T23:32:00.231Z,12.90
2017-06-17T23:34:27.759Z,12.80
2017-06-17T23:36:56.095Z,12.80
2017-06-17T23:39:23.624Z,12.80
2017-06-17T23:41:51.151Z,12.70
2017-06-17T23:44:19.478Z,12.70
2017-06-17T23:46:47.010Z,12.60
2017-06-17T23:49:14.537Z,12.60
2017-06-17T23:51:42.875Z,12.50
2017-06-17T23:54:10.403Z,12.50
2017-06-17T23:56:37.939Z,12.40
2017-06-17T23:59:06.274Z,12.40
